Terminal Aerodrome Forecast
Issued by NWS

Home | Current Version | Previous Version | Graphics & Text | Print | Product List | Glossary On
Versions: 1 2 3 4 5 6 7 8 9 10 11 12 13 14 15 16
878
FTUS43 KGRB 180540
TAFAUW
TAF
KAUW 180540Z 1806/1906 29012KT P6SM OVC012
     FM181500 30012G20KT P6SM SCT025
      TEMPO 1815/1817 SCT012 BKN025
     FM181700 30013G20KT P6SM SCT025 BKN035
     FM182300 29004KT P6SM BKN045=

USA.gov is the U.S. government's official web portal to all federal, state and local government web resources and services.